createdAt,value
2022-12-03T00:00:19.679Z,25.63
2022-12-03T00:02:47.448Z,23.52
2022-12-03T00:05:16.711Z,21.95
2022-12-03T00:07:44.406Z,22.70
2022-12-03T00:10:12.983Z,27.38
2022-12-03T00:12:40.728Z,25.48
2022-12-03T00:15:09.850Z,27.42
2022-12-03T00:17:37.642Z,22.20
2022-12-03T00:20:06.228Z,21.85
2022-12-03T00:22:35.231Z,23.10
2022-12-03T00:25:02.869Z,24.30
2022-12-03T00:27:30.476Z,23.98
2022-12-03T00:29:58.106Z,26.67
2022-12-03T00:32:25.768Z,25.27
2022-12-03T00:34:53.725Z,23.45
2022-12-03T00:37:21.628Z,19.73
2022-12-03T00:39:50.628Z,24.85
2022-12-03T00:42:18.308Z,23.02
2022-12-03T00:44:46.016Z,28.92
2022-12-03T00:47:13.888Z,26.02
2022-12-03T00:49:41.760Z,25.17
2022-12-03T00:52:09.371Z,23.48
2022-12-03T00:54:36.997Z,24.80
2022-12-03T00:57:06.053Z,22.17
2022-12-03T00:59:33.739Z,23.13
2022-12-03T01:02:01.408Z,27.65
2022-12-03T01:04:29.126Z,24.55
2022-12-03T01:06:56.883Z,23.90
2022-12-03T01:09:24.571Z,23.58
2022-12-03T01:11:52.212Z,25.30
2022-12-03T01:14:21.584Z,26.48
2022-12-03T01:16:49.475Z,24.75
2022-12-03T01:19:18.328Z,21.95
2022-12-03T01:21:49.438Z,23.63
2022-12-03T01:24:17.145Z,21.55
2022-12-03T01:26:44.776Z,29.88
2022-12-03T01:29:12.476Z,24.42
2022-12-03T01:31:59.210Z,29.63
2022-12-03T01:34:26.924Z,21.65
2022-12-03T01:36:54.639Z,24.35
2022-12-03T01:39:22.319Z,24.58
2022-12-03T01:41:52.652Z,23.35
2022-12-03T01:44:23.560Z,25.80
2022-12-03T01:46:55.162Z,23.35
2022-12-03T01:49:27.184Z,26.30
2022-12-03T01:51:56.019Z,22.83
2022-12-03T01:54:28.580Z,24.63
2022-12-03T01:56:56.618Z,24.92
2022-12-03T01:59:33.821Z,22.42
2022-12-03T02:02:12.494Z,25.08
2022-12-03T02:04:40.412Z,26.73
2022-12-03T02:07:19.728Z,25.40
2022-12-03T02:09:47.551Z,26.98
2022-12-03T02:12:18.604Z,27.85
2022-12-03T02:14:47.021Z,22.63
2022-12-03T02:17:16.807Z,24.88
2022-12-03T02:19:44.535Z,22.60
2022-12-03T02:22:23.994Z,24.60
2022-12-03T02:24:59.951Z,24.20
2022-12-03T02:27:29.772Z,28.90
2022-12-03T02:29:57.716Z,23.23
2022-12-03T02:32:25.375Z,25.63
2022-12-03T02:34:53.243Z,24.92
2022-12-03T02:37:24.983Z,27.75
2022-12-03T02:39:55.733Z,28.55
2022-12-03T02:42:35.990Z,27.58
2022-12-03T02:45:09.790Z,23.85
2022-12-03T02:47:42.384Z,23.10
2022-12-03T02:50:12.410Z,22.25
2022-12-03T02:52:41.172Z,26.05
2022-12-03T02:55:10.664Z,21.20
2022-12-03T02:57:39.685Z,24.67
2022-12-03T03:00:10.835Z,25.40
2022-12-03T03:02:40.355Z,25.00
2022-12-03T03:05:11.508Z,26.83
2022-12-03T03:07:40.684Z,24.50
2022-12-03T03:10:12.638Z,24.65
2022-12-03T03:12:40.417Z,25.80
2022-12-03T03:15:12.196Z,22.48
2022-12-03T03:17:40.378Z,22.83
2022-12-03T03:20:10.171Z,27.40
2022-12-03T03:22:40.456Z,24.25
2022-12-03T03:25:11.828Z,26.75
2022-12-03T03:27:41.218Z,25.02
2022-12-03T03:30:12.012Z,24.88
2022-12-03T03:32:41.020Z,27.23
2022-12-03T03:35:09.999Z,24.15
2022-12-03T03:37:37.827Z,29.13
2022-12-03T03:40:06.580Z,24.60
2022-12-03T03:42:34.628Z,25.73
2022-12-03T03:45:02.511Z,24.65
2022-12-03T03:47:31.567Z,24.73
2022-12-03T03:49:59.386Z,27.98
2022-12-03T03:52:27.176Z,24.83
2022-12-03T03:54:55.043Z,28.20
2022-12-03T03:57:22.789Z,26.63
2022-12-03T03:59:50.507Z,24.33
2022-12-03T04:02:20.705Z,28.10
2022-12-03T04:04:49.854Z,23.08
2022-12-03T04:07:18.021Z,23.48
2022-12-03T04:09:45.743Z,24.95
2022-12-03T04:12:31.826Z,25.38
2022-12-03T04:15:00.001Z,28.00
2022-12-03T04:17:27.786Z,29.15
2022-12-03T04:19:56.723Z,26.23
2022-12-03T04:22:41.586Z,25.50
2022-12-03T04:25:28.202Z,23.42
2022-12-03T04:28:13.929Z,29.50
2022-12-03T04:30:41.638Z,32.13
2022-12-03T04:33:26.795Z,28.17
2022-12-03T04:35:55.828Z,32.17
2022-12-03T04:38:23.496Z,29.92
2022-12-03T04:41:01.502Z,25.13
2022-12-03T04:43:29.932Z,28.52
2022-12-03T04:48:25.608Z,22.90
2022-12-03T04:50:53.334Z,29.88
2022-12-03T04:53:22.283Z,26.45
2022-12-03T04:55:49.884Z,25.58
2022-12-03T04:58:17.524Z,31.08
2022-12-03T05:00:45.116Z,25.50
2022-12-03T05:03:12.756Z,23.35
2022-12-03T05:05:40.415Z,25.60
2022-12-03T05:08:08.258Z,29.38
2022-12-03T05:10:37.327Z,26.60
2022-12-03T05:13:04.997Z,23.35
2022-12-03T05:15:32.643Z,29.23
2022-12-03T05:18:00.280Z,31.50
2022-12-03T05:20:46.959Z,30.10
2022-12-03T05:23:19.151Z,29.98
2022-12-03T05:25:48.338Z,31.52
2022-12-03T05:28:16.137Z,31.08
2022-12-03T05:30:43.990Z,33.20
2022-12-03T05:33:11.729Z,32.70
2022-12-03T05:35:39.367Z,34.20
2022-12-03T05:38:07.036Z,29.60
2022-12-03T05:40:34.725Z,31.00
2022-12-03T05:43:02.795Z,36.42
2022-12-03T05:45:32.706Z,28.50
2022-12-03T05:48:01.321Z,32.05
2022-12-03T05:50:31.150Z,31.55
2022-12-03T05:52:58.969Z,27.85
2022-12-03T05:55:26.784Z,35.35
2022-12-03T05:57:54.464Z,30.42
2022-12-03T06:00:25.587Z,35.67
2022-12-03T06:02:54.151Z,33.03
2022-12-03T06:05:23.265Z,30.30
2022-12-03T06:07:53.082Z,34.90
2022-12-03T06:10:22.832Z,35.75
2022-12-03T06:12:50.951Z,31.70
2022-12-03T06:15:19.270Z,29.25
2022-12-03T06:17:48.737Z,30.45
2022-12-03T06:20:18.467Z,29.83
2022-12-03T06:22:46.508Z,29.15
2022-12-03T06:25:14.520Z,31.05
2022-12-03T06:27:42.150Z,33.30
2022-12-03T06:30:12.178Z,31.52
2022-12-03T06:32:39.818Z,27.85
2022-12-03T06:35:09.873Z,34.92
2022-12-03T06:37:37.489Z,33.17
2022-12-03T06:40:05.834Z,32.53
2022-12-03T06:42:33.467Z,29.80
2022-12-03T06:45:01.192Z,31.02
2022-12-03T06:47:28.795Z,33.00
2022-12-03T06:49:56.420Z,27.13
2022-12-03T06:52:25.433Z,32.88
2022-12-03T06:54:53.322Z,32.28
2022-12-03T06:57:21.128Z,28.23
2022-12-03T06:59:48.929Z,27.90
2022-12-03T07:02:16.568Z,27.67
2022-12-03T07:04:46.376Z,31.00
2022-12-03T07:07:14.569Z,31.75
2022-12-03T07:09:43.591Z,30.08
2022-12-03T07:12:11.434Z,30.02
2022-12-03T07:14:39.062Z,32.63
2022-12-03T07:17:06.722Z,31.00
2022-12-03T07:19:34.419Z,35.13
2022-12-03T07:22:02.110Z,23.98
2022-12-03T07:24:29.801Z,29.00
2022-12-03T07:26:58.738Z,29.98
2022-12-03T07:29:26.459Z,32.03
2022-12-03T07:31:54.196Z,30.13
2022-12-03T07:34:21.935Z,31.00
2022-12-03T07:36:49.583Z,28.15
2022-12-03T07:39:17.539Z,28.98
2022-12-03T07:41:45.237Z,32.22
2022-12-03T07:44:15.005Z,34.65
2022-12-03T07:46:42.998Z,32.95
2022-12-03T07:49:12.079Z,27.88
2022-12-03T07:51:41.868Z,31.95
2022-12-03T07:54:09.794Z,28.45
2022-12-03T07:56:37.459Z,31.75
2022-12-03T07:59:05.142Z,30.80
2022-12-03T08:01:34.157Z,28.27
2022-12-03T08:04:02.615Z,35.50
2022-12-03T08:06:30.247Z,27.45
2022-12-03T08:08:57.935Z,32.83
2022-12-03T08:11:25.640Z,32.17
2022-12-03T08:13:53.288Z,26.75
2022-12-03T08:16:22.209Z,27.73
2022-12-03T08:18:52.267Z,31.10
2022-12-03T08:21:21.959Z,30.35
2022-12-03T08:23:49.751Z,42.22
2022-12-03T08:26:23.547Z,29.65
2022-12-03T08:28:51.509Z,29.80
2022-12-03T08:31:20.898Z,30.45
2022-12-03T08:33:50.425Z,30.60
2022-12-03T08:36:22.630Z,34.17
2022-12-03T08:38:52.936Z,29.92
2022-12-03T08:41:35.656Z,28.90
2022-12-03T08:44:15.770Z,29.15
2022-12-03T08:46:43.453Z,37.20
2022-12-03T08:49:11.214Z,37.53
2022-12-03T08:51:40.212Z,36.17
2022-12-03T08:54:15.355Z,38.45
2022-12-03T08:56:43.871Z,34.90
2022-12-03T09:01:53.363Z,30.88
2022-12-03T09:04:24.157Z,30.95
2022-12-03T09:06:54.052Z,32.60
2022-12-03T09:09:21.959Z,32.50
2022-12-03T09:11:50.151Z,37.28
2022-12-03T09:14:21.147Z,32.55
2022-12-03T09:16:49.347Z,32.40
2022-12-03T09:19:17.257Z,29.92
2022-12-03T09:21:44.975Z,34.05
2022-12-03T09:24:14.143Z,32.15
2022-12-03T09:26:41.855Z,32.15
2022-12-03T09:29:12.339Z,37.95
2022-12-03T09:31:40.602Z,32.90
2022-12-03T09:34:09.150Z,29.63
2022-12-03T09:39:04.736Z,32.92
2022-12-03T09:41:33.793Z,37.20
2022-12-03T09:44:04.404Z,31.30
2022-12-03T09:46:34.574Z,32.97
2022-12-03T09:49:02.816Z,25.65
2022-12-03T09:51:33.973Z,33.88
2022-12-03T09:54:02.604Z,30.65
2022-12-03T09:56:30.350Z,29.33
2022-12-03T09:59:00.141Z,34.28
2022-12-03T10:01:30.363Z,31.58
2022-12-03T10:03:59.373Z,24.83
2022-12-03T10:06:27.199Z,24.52
2022-12-03T10:08:56.356Z,25.00
2022-12-03T10:11:26.085Z,27.30
2022-12-03T10:13:55.895Z,26.13
2022-12-03T10:16:26.131Z,22.48
2022-12-03T10:18:56.963Z,30.25
2022-12-03T10:21:26.988Z,31.95
2022-12-03T10:24:28.462Z,34.42
2022-12-03T10:26:58.428Z,27.65
2022-12-03T10:29:33.238Z,38.38
2022-12-03T10:32:05.209Z,27.00
2022-12-03T10:34:35.088Z,34.90
2022-12-03T10:37:17.311Z,33.75
2022-12-03T10:39:59.417Z,29.38
2022-12-03T10:42:28.369Z,34.10
2022-12-03T10:45:09.754Z,30.63
2022-12-03T10:47:38.950Z,30.67
2022-12-03T10:50:16.315Z,31.67
2022-12-03T10:52:44.253Z,31.52
2022-12-03T10:55:14.125Z,36.53
2022-12-03T10:57:45.616Z,28.42
2022-12-03T11:00:17.847Z,31.70
2022-12-03T11:02:54.682Z,31.92
2022-12-03T11:05:28.014Z,36.10
2022-12-03T11:07:56.537Z,27.65
2022-12-03T11:10:24.627Z,33.65
2022-12-03T11:13:29.872Z,35.63
2022-12-03T11:15:58.068Z,28.08
2022-12-03T11:19:00.304Z,37.60
2022-12-03T11:21:28.547Z,29.17
2022-12-03T11:24:16.041Z,32.30
2022-12-03T11:27:26.435Z,29.10
2022-12-03T11:30:02.190Z,30.02
2022-12-03T11:33:07.265Z,24.35
2022-12-03T11:36:15.368Z,31.95
2022-12-03T11:38:52.946Z,22.48
2022-12-03T11:41:24.380Z,22.15
2022-12-03T11:44:29.400Z,28.02
2022-12-03T11:46:59.226Z,24.60
2022-12-03T11:49:40.024Z,21.27
2022-12-03T11:52:23.968Z,21.00
2022-12-03T11:54:54.903Z,25.17
2022-12-03T11:57:30.344Z,19.30
2022-12-03T12:00:03.848Z,22.40
2022-12-03T12:02:31.704Z,22.17
2022-12-03T12:05:16.420Z,23.23
2022-12-03T12:07:47.824Z,23.10
2022-12-03T12:10:16.212Z,18.80
2022-12-03T12:12:54.369Z,24.13
2022-12-03T12:15:44.048Z,23.73
2022-12-03T12:18:40.050Z,22.20
2022-12-03T12:21:47.672Z,21.65
2022-12-03T12:24:46.775Z,22.70
2022-12-03T12:27:15.747Z,29.10
2022-12-03T12:29:45.795Z,23.38
2022-12-03T12:32:16.102Z,20.83
2022-12-03T12:34:46.359Z,22.88
2022-12-03T12:37:18.515Z,26.40
2022-12-03T12:39:47.719Z,23.30
2022-12-03T12:42:30.199Z,23.80
2022-12-03T12:45:02.217Z,26.30
2022-12-03T12:47:32.004Z,23.17
2022-12-03T12:49:59.958Z,26.10
2022-12-03T12:52:28.656Z,22.42
2022-12-03T12:55:03.082Z,22.98
2022-12-03T12:57:34.756Z,21.98
2022-12-03T13:00:03.889Z,24.33
2022-12-03T13:02:45.655Z,22.27
2022-12-03T13:05:15.012Z,21.25
2022-12-03T13:07:43.951Z,24.17
2022-12-03T13:10:32.971Z,22.80
2022-12-03T13:13:03.884Z,25.20
2022-12-03T13:15:43.427Z,21.52
2022-12-03T13:18:23.188Z,24.20
2022-12-03T13:20:50.851Z,22.67
2022-12-03T13:23:28.275Z,28.20
2022-12-03T13:26:04.013Z,24.90
2022-12-03T13:28:37.069Z,27.70
2022-12-03T13:31:22.269Z,31.10
2022-12-03T13:33:50.315Z,40.70
2022-12-03T13:36:20.767Z,54.05
2022-12-03T13:38:49.081Z,58.55
2022-12-03T13:41:38.636Z,49.92
2022-12-03T13:44:16.549Z,51.13
2022-12-03T13:46:44.426Z,38.08
2022-12-03T13:49:19.597Z,36.92
2022-12-03T13:51:47.499Z,31.48
2022-12-03T13:54:20.660Z,34.88
2022-12-03T13:56:50.256Z,37.63
2022-12-03T13:59:22.985Z,44.15
2022-12-03T14:01:53.906Z,50.92
2022-12-03T14:04:21.541Z,47.60
2022-12-03T14:06:49.220Z,47.45
2022-12-03T14:09:16.869Z,47.28
2022-12-03T14:12:01.962Z,38.65
2022-12-03T14:14:30.918Z,43.13
2022-12-03T14:17:00.188Z,34.15
2022-12-03T14:19:28.206Z,42.67
2022-12-03T14:21:55.844Z,46.60
2022-12-03T14:24:23.620Z,34.80
2022-12-03T14:26:51.293Z,36.45
2022-12-03T14:29:19.023Z,33.17
2022-12-03T14:31:48.030Z,36.67
2022-12-03T14:34:15.714Z,30.98
2022-12-03T14:36:44.161Z,33.67
2022-12-03T14:39:11.867Z,31.88
2022-12-03T14:41:53.463Z,28.23
2022-12-03T14:44:21.847Z,25.08
2022-12-03T14:46:56.575Z,26.90
2022-12-03T14:51:52.493Z,26.92
2022-12-03T14:54:20.178Z,31.60
2022-12-03T14:56:47.838Z,38.22
2022-12-03T14:59:15.503Z,29.77
2022-12-03T15:01:43.206Z,33.55
2022-12-03T15:04:12.325Z,32.88
2022-12-03T15:06:40.001Z,27.58
2022-12-03T15:09:07.831Z,22.50
2022-12-03T15:11:35.686Z,26.67
2022-12-03T15:14:03.319Z,27.27
2022-12-03T15:16:30.955Z,23.83
2022-12-03T15:18:58.612Z,23.08
2022-12-03T15:21:28.511Z,23.85
2022-12-03T15:23:56.228Z,25.50
2022-12-03T15:26:23.909Z,27.02
2022-12-03T15:28:51.595Z,30.17
2022-12-03T15:31:19.281Z,35.67
2022-12-03T15:33:47.005Z,38.85
2022-12-03T15:36:14.827Z,38.45
2022-12-03T15:38:43.836Z,39.28
2022-12-03T15:41:25.435Z,37.05
2022-12-03T15:43:53.234Z,39.00
2022-12-03T15:46:21.362Z,29.92
2022-12-03T15:48:49.314Z,35.25
2022-12-03T15:51:17.607Z,45.85
2022-12-03T15:53:46.817Z,38.92
2022-12-03T15:56:14.853Z,39.25
2022-12-03T15:58:42.763Z,42.53
2022-12-03T16:01:10.589Z,39.25
2022-12-03T16:03:38.263Z,41.65
2022-12-03T16:06:06.500Z,37.72
2022-12-03T16:08:34.173Z,44.10
2022-12-03T16:11:03.164Z,36.25
2022-12-03T16:13:30.868Z,46.13
2022-12-03T16:15:58.548Z,44.28
2022-12-03T16:18:26.296Z,41.17
2022-12-03T16:20:53.951Z,45.15
2022-12-03T16:23:21.664Z,36.45
2022-12-03T16:25:49.374Z,40.70
2022-12-03T16:28:18.359Z,39.97
2022-12-03T16:30:46.033Z,33.08
2022-12-03T16:33:13.683Z,45.35
2022-12-03T16:35:41.323Z,36.97
2022-12-03T16:38:08.991Z,38.42
2022-12-03T16:40:36.694Z,41.95
2022-12-03T16:43:04.868Z,39.20
2022-12-03T16:46:02.305Z,39.80
2022-12-03T16:48:30.672Z,36.70
2022-12-03T16:50:58.315Z,41.53
2022-12-03T16:53:25.964Z,28.90
2022-12-03T16:55:53.638Z,37.80
2022-12-03T16:58:21.496Z,42.55
2022-12-03T17:00:51.124Z,41.25
2022-12-03T17:03:19.005Z,46.13
2022-12-03T17:05:47.057Z,36.65
2022-12-03T17:08:15.810Z,42.67
2022-12-03T17:10:43.808Z,39.15
2022-12-03T17:13:11.813Z,39.15
2022-12-03T17:15:40.411Z,44.60
2022-12-03T17:18:10.396Z,35.20
2022-12-03T17:20:38.537Z,43.28
2022-12-03T17:23:06.231Z,36.67
2022-12-03T17:25:34.864Z,45.03
2022-12-03T17:30:30.004Z,40.38
2022-12-03T17:32:57.728Z,37.63
2022-12-03T17:35:28.502Z,35.42
2022-12-03T17:37:56.412Z,46.65
2022-12-03T17:40:24.166Z,41.17
2022-12-03T17:42:51.841Z,40.83
2022-12-03T17:45:19.504Z,42.63
2022-12-03T17:47:47.133Z,45.20
2022-12-03T17:50:14.808Z,46.80
2022-12-03T17:52:43.837Z,39.63
2022-12-03T17:55:17.828Z,33.45
2022-12-03T17:57:49.139Z,40.10
2022-12-03T18:00:17.252Z,42.50
2022-12-03T18:02:44.872Z,49.65
2022-12-03T18:05:13.457Z,40.50
2022-12-03T18:10:10.549Z,39.63
2022-12-03T18:12:38.429Z,30.00
2022-12-03T18:15:06.740Z,43.60
2022-12-03T18:17:34.381Z,30.75
2022-12-03T18:20:02.215Z,35.30
2022-12-03T18:22:29.961Z,39.10
2022-12-03T18:24:58.028Z,35.90
2022-12-03T18:27:27.008Z,39.45
2022-12-03T18:29:54.812Z,37.60
2022-12-03T18:32:30.220Z,33.88
2022-12-03T18:34:58.690Z,36.75
2022-12-03T18:37:28.376Z,43.92
2022-12-03T18:39:57.568Z,35.20
2022-12-03T18:42:27.288Z,43.38
2022-12-03T18:44:56.518Z,40.80
2022-12-03T18:47:25.930Z,36.92
2022-12-03T18:49:55.355Z,47.15
2022-12-03T18:52:24.948Z,38.25
2022-12-03T18:54:52.788Z,40.65
2022-12-03T18:57:20.436Z,36.15
2022-12-03T18:59:49.538Z,38.65
2022-12-03T19:02:53.785Z,37.92
2022-12-03T19:05:08.069Z,46.92
2022-12-03T19:07:35.884Z,34.38
2022-12-03T19:10:03.825Z,36.33
2022-12-03T19:12:31.776Z,36.70
2022-12-03T19:15:00.772Z,43.22
2022-12-03T19:17:28.607Z,32.25
2022-12-03T19:19:56.634Z,37.70
2022-12-03T19:22:24.854Z,33.00
2022-12-03T19:24:52.513Z,44.08
2022-12-03T19:27:20.440Z,36.15
2022-12-03T19:29:49.408Z,40.45
2022-12-03T19:32:18.527Z,41.10
2022-12-03T19:34:46.156Z,37.70
2022-12-03T19:37:13.836Z,34.92
2022-12-03T19:39:43.059Z,32.65
2022-12-03T19:42:11.006Z,36.53
2022-12-03T19:44:39.054Z,35.63
2022-12-03T19:47:06.757Z,34.08
2022-12-03T19:49:35.775Z,37.60
2022-12-03T19:52:03.475Z,33.63
2022-12-03T19:54:31.137Z,39.58
2022-12-03T19:56:58.828Z,37.38
2022-12-03T19:59:26.525Z,33.72
2022-12-03T20:01:54.314Z,34.95
2022-12-03T20:04:22.138Z,37.70
2022-12-03T20:06:51.136Z,36.53
2022-12-03T20:09:20.617Z,32.63
2022-12-03T20:11:51.776Z,30.83
2022-12-03T20:14:19.611Z,36.60
2022-12-03T20:16:47.653Z,36.83
2022-12-03T20:19:17.861Z,38.00
2022-12-03T20:21:45.661Z,36.85
2022-12-03T20:24:17.176Z,41.83
2022-12-03T20:26:45.048Z,35.50
2022-12-03T20:29:14.353Z,36.08
2022-12-03T20:31:42.087Z,39.78
2022-12-03T20:34:11.191Z,35.80
2022-12-03T20:36:39.855Z,34.08
2022-12-03T20:39:08.869Z,36.25
2022-12-03T20:41:38.818Z,37.47
2022-12-03T20:44:07.887Z,36.50
2022-12-03T20:46:36.225Z,35.15
2022-12-03T20:49:04.647Z,32.42
2022-12-03T20:51:32.727Z,30.63
2022-12-03T20:54:02.056Z,35.63
2022-12-03T20:56:33.784Z,35.45
2022-12-03T20:59:04.793Z,33.08
2022-12-03T21:01:32.762Z,33.25
2022-12-03T21:04:00.624Z,33.67
2022-12-03T21:06:29.953Z,32.20
2022-12-03T21:08:59.377Z,32.47
2022-12-03T21:11:30.716Z,32.03
2022-12-03T21:13:59.530Z,35.42
2022-12-03T21:17:05.865Z,32.53
2022-12-03T21:19:21.852Z,38.55
2022-12-03T21:21:49.663Z,35.35
2022-12-03T21:24:17.346Z,32.13
2022-12-03T21:26:45.013Z,34.65
2022-12-03T21:29:12.954Z,29.25
2022-12-03T21:31:41.975Z,34.92
2022-12-03T21:34:09.610Z,34.72
2022-12-03T21:36:40.057Z,35.55
2022-12-03T21:39:08.157Z,34.92
2022-12-03T21:41:36.084Z,33.38
2022-12-03T21:44:03.964Z,40.25
2022-12-03T21:47:11.640Z,34.45
2022-12-03T21:49:20.831Z,40.08
2022-12-03T21:51:48.475Z,37.78
2022-12-03T21:54:16.235Z,39.25
2022-12-03T21:56:43.863Z,42.47
2022-12-03T21:59:11.572Z,33.80
2022-12-03T22:01:42.918Z,39.40
2022-12-03T22:04:14.553Z,33.95
2022-12-03T22:06:43.622Z,36.17
2022-12-03T22:09:11.280Z,36.95
2022-12-03T22:11:38.931Z,36.95
2022-12-03T22:14:08.202Z,36.13
2022-12-03T22:16:36.037Z,39.58
2022-12-03T22:19:03.761Z,42.72
2022-12-03T22:21:31.455Z,40.17
2022-12-03T22:24:00.457Z,38.72
2022-12-03T22:26:28.139Z,37.95
2022-12-03T22:28:55.790Z,37.55
2022-12-03T22:31:23.469Z,40.78
2022-12-03T22:33:51.145Z,33.65
2022-12-03T22:36:21.611Z,37.17
2022-12-03T22:38:50.368Z,40.75
2022-12-03T22:41:20.982Z,36.92
2022-12-03T22:43:49.614Z,33.58
2022-12-03T22:46:18.335Z,40.80
2022-12-03T22:48:47.608Z,39.20
2022-12-03T22:51:17.523Z,42.53
2022-12-03T22:53:45.208Z,38.72
2022-12-03T22:56:13.252Z,34.00
2022-12-03T22:58:42.275Z,38.67
2022-12-03T23:01:10.331Z,29.90
2022-12-03T23:03:38.154Z,42.40
2022-12-03T23:06:11.231Z,41.55
2022-12-03T23:08:39.030Z,42.05
2022-12-03T23:11:07.039Z,36.97
2022-12-03T23:13:35.231Z,36.03
2022-12-03T23:16:04.801Z,38.65
2022-12-03T23:18:32.870Z,45.50
2022-12-03T23:21:00.905Z,33.38
2022-12-03T23:23:31.123Z,40.95
2022-12-03T23:25:59.879Z,40.08
2022-12-03T23:28:28.478Z,41.45
2022-12-03T23:33:26.095Z,33.67
2022-12-03T23:35:53.940Z,39.03
2022-12-03T23:38:21.790Z,36.58
2022-12-03T23:40:49.566Z,31.85
2022-12-03T23:43:17.413Z,40.58
2022-12-03T23:45:46.870Z,45.78
2022-12-03T23:48:14.494Z,48.13
2022-12-03T23:50:43.518Z,45.88
2022-12-03T23:53:11.150Z,32.70
2022-12-03T23:55:40.814Z,41.45
2022-12-03T23:58:08.689Z,45.30
